sensor_id;sensor_type;location;lat;lon;timestamp;temperature;humidity
59855;DHT22;45732;52.850;6.896;2023-08-30T00:01:55;15.00;99.90
59855;DHT22;45732;52.850;6.896;2023-08-30T00:04:22;15.10;99.90
59855;DHT22;45732;52.850;6.896;2023-08-30T00:06:48;15.00;99.90
59855;DHT22;45732;52.850;6.896;2023-08-30T00:09:13;15.00;99.90
59855;DHT22;45732;52.850;6.896;2023-08-30T00:11:39;14.90;99.90
59855;DHT22;45732;52.850;6.896;2023-08-30T00:14:06;14.90;99.90
59855;DHT22;45732;52.850;6.896;2023-08-30T00:16:36;14.90;99.90
59855;DHT22;45732;52.850;6.896;2023-08-30T00:19:03;14.90;99.90
59855;DHT22;45732;52.850;6.896;2023-08-30T00:21:29;14.80;99.90
59855;DHT22;45732;52.850;6.896;2023-08-30T00:23:55;14.80;99.90
59855;DHT22;45732;52.850;6.896;2023-08-30T00:26:21;14.80;99.90
59855;DHT22;45732;52.850;6.896;2023-08-30T00:28:47;14.80;99.90
59855;DHT22;45732;52.850;6.896;2023-08-30T00:31:13;14.70;99.90
59855;DHT22;45732;52.850;6.896;2023-08-30T00:33:38;14.70;99.90
59855;DHT22;45732;52.850;6.896;2023-08-30T00:36:04;14.70;99.90
59855;DHT22;45732;52.850;6.896;2023-08-30T00:38:33;14.60;99.90
59855;DHT22;45732;52.850;6.896;2023-08-30T00:40:59;14.60;99.90
59855;DHT22;45732;52.850;6.896;2023-08-30T00:43:24;14.60;99.90
59855;DHT22;45732;52.850;6.896;2023-08-30T00:45:50;14.60;99.90
59855;DHT22;45732;52.850;6.896;2023-08-30T00:48:18;14.60;99.90
59855;DHT22;45732;52.850;6.896;2023-08-30T00:50:45;14.50;99.90
59855;DHT22;45732;52.850;6.896;2023-08-30T00:53:11;14.50;99.90
59855;DHT22;45732;52.850;6.896;2023-08-30T00:55:38;14.50;99.90
59855;DHT22;45732;52.850;6.896;2023-08-30T00:58:05;14.50;99.90
59855;DHT22;45732;52.850;6.896;2023-08-30T01:00:31;14.40;99.90
59855;DHT22;45732;52.850;6.896;2023-08-30T01:02:57;14.40;99.90
59855;DHT22;45732;52.850;6.896;2023-08-30T01:05:23;14.50;99.90
59855;DHT22;45732;52.850;6.896;2023-08-30T01:07:50;14.40;99.90
59855;DHT22;45732;52.850;6.896;2023-08-30T01:10:17;14.40;99.90
59855;DHT22;45732;52.850;6.896;2023-08-30T01:12:47;14.40;99.90
59855;DHT22;45732;52.850;6.896;2023-08-30T01:15:20;14.40;99.90
59855;DHT22;45732;52.850;6.896;2023-08-30T01:17:52;14.30;99.90
59855;DHT22;45732;52.850;6.896;2023-08-30T01:20:18;14.30;99.90
59855;DHT22;45732;52.850;6.896;2023-08-30T01:23:03;14.30;99.90
59855;DHT22;45732;52.850;6.896;2023-08-30T01:28:23;14.20;99.90
59855;DHT22;45732;52.850;6.896;2023-08-30T01:30:50;14.20;99.90
59855;DHT22;45732;52.850;6.896;2023-08-30T01:33:20;14.20;99.90
59855;DHT22;45732;52.850;6.896;2023-08-30T01:35:47;14.20;99.90
59855;DHT22;45732;52.850;6.896;2023-08-30T01:38:14;14.10;99.90
59855;DHT22;45732;52.850;6.896;2023-08-30T01:40:42;14.10;99.90
59855;DHT22;45732;52.850;6.896;2023-08-30T01:43:09;14.10;99.90
59855;DHT22;45732;52.850;6.896;2023-08-30T01:45:42;14.00;99.90
59855;DHT22;45732;52.850;6.896;2023-08-30T01:48:12;14.10;99.90
59855;DHT22;45732;52.850;6.896;2023-08-30T01:50:39;14.00;99.90
59855;DHT22;45732;52.850;6.896;2023-08-30T01:53:07;14.00;99.90
59855;DHT22;45732;52.850;6.896;2023-08-30T01:55:34;14.00;99.90
59855;DHT22;45732;52.850;6.896;2023-08-30T01:58:00;13.90;99.90
59855;DHT22;45732;52.850;6.896;2023-08-30T02:00:26;14.00;99.90
59855;DHT22;45732;52.850;6.896;2023-08-30T02:02:52;13.90;99.90
59855;DHT22;45732;52.850;6.896;2023-08-30T02:05:18;13.90;99.90
59855;DHT22;45732;52.850;6.896;2023-08-30T02:07:58;13.90;99.90
59855;DHT22;45732;52.850;6.896;2023-08-30T02:10:33;13.90;99.90
59855;DHT22;45732;52.850;6.896;2023-08-30T02:13:00;13.90;99.90
59855;DHT22;45732;52.850;6.896;2023-08-30T02:15:27;13.90;99.90
59855;DHT22;45732;52.850;6.896;2023-08-30T02:17:55;13.90;99.90
59855;DHT22;45732;52.850;6.896;2023-08-30T02:20:22;13.80;99.90
59855;DHT22;45732;52.850;6.896;2023-08-30T02:22:48;13.80;99.90
59855;DHT22;45732;52.850;6.896;2023-08-30T02:25:13;13.80;99.90
59855;DHT22;45732;52.850;6.896;2023-08-30T02:27:39;13.80;99.90
59855;DHT22;45732;52.850;6.896;2023-08-30T02:30:07;13.70;99.90
59855;DHT22;45732;52.850;6.896;2023-08-30T02:32:33;13.80;99.90
59855;DHT22;45732;52.850;6.896;2023-08-30T02:34:59;13.80;99.90
59855;DHT22;45732;52.850;6.896;2023-08-30T02:37:25;13.70;99.90
59855;DHT22;45732;52.850;6.896;2023-08-30T02:39:50;13.70;99.90
59855;DHT22;45732;52.850;6.896;2023-08-30T02:42:16;13.70;99.90
59855;DHT22;45732;52.850;6.896;2023-08-30T02:44:42;13.70;99.90
59855;DHT22;45732;52.850;6.896;2023-08-30T02:47:08;13.70;99.90
59855;DHT22;45732;52.850;6.896;2023-08-30T02:49:33;13.70;99.90
59855;DHT22;45732;52.850;6.896;2023-08-30T02:51:59;13.60;99.90
59855;DHT22;45732;52.850;6.896;2023-08-30T02:54:25;13.60;99.90
59855;DHT22;45732;52.850;6.896;2023-08-30T02:56:51;13.60;99.90
59855;DHT22;45732;52.850;6.896;2023-08-30T02:59:16;13.60;99.90
59855;DHT22;45732;52.850;6.896;2023-08-30T03:01:42;13.50;99.90
59855;DHT22;45732;52.850;6.896;2023-08-30T03:04:08;13.50;99.90
59855;DHT22;45732;52.850;6.896;2023-08-30T03:06:34;13.50;99.90
59855;DHT22;45732;52.850;6.896;2023-08-30T03:09:01;13.50;99.90
59855;DHT22;45732;52.850;6.896;2023-08-30T03:11:28;13.40;99.90
59855;DHT22;45732;52.850;6.896;2023-08-30T03:13:54;13.40;99.90
59855;DHT22;45732;52.850;6.896;2023-08-30T03:16:20;13.40;99.90
59855;DHT22;45732;52.850;6.896;2023-08-30T03:18:47;13.50;99.90
59855;DHT22;45732;52.850;6.896;2023-08-30T03:21:13;13.50;99.90
59855;DHT22;45732;52.850;6.896;2023-08-30T03:23:40;13.50;99.90
59855;DHT22;45732;52.850;6.896;2023-08-30T03:28:35;13.50;99.90
59855;DHT22;45732;52.850;6.896;2023-08-30T03:31:01;13.50;99.90
59855;DHT22;45732;52.850;6.896;2023-08-30T03:33:26;13.50;99.90
59855;DHT22;45732;52.850;6.896;2023-08-30T03:35:52;13.40;99.90
59855;DHT22;45732;52.850;6.896;2023-08-30T03:38:18;13.40;99.90
59855;DHT22;45732;52.850;6.896;2023-08-30T03:40:44;13.40;99.90
59855;DHT22;45732;52.850;6.896;2023-08-30T03:43:10;13.40;99.90
59855;DHT22;45732;52.850;6.896;2023-08-30T03:45:36;13.40;99.90
59855;DHT22;45732;52.850;6.896;2023-08-30T03:48:03;13.40;99.90
59855;DHT22;45732;52.850;6.896;2023-08-30T03:50:29;13.40;99.90
59855;DHT22;45732;52.850;6.896;2023-08-30T03:52:55;13.40;99.90
59855;DHT22;45732;52.850;6.896;2023-08-30T03:55:21;13.40;99.90
59855;DHT22;45732;52.850;6.896;2023-08-30T03:57:48;13.40;99.90
59855;DHT22;45732;52.850;6.896;2023-08-30T04:00:14;13.30;99.90
59855;DHT22;45732;52.850;6.896;2023-08-30T04:02:40;13.30;99.90
59855;DHT22;45732;52.850;6.896;2023-08-30T04:05:06;13.30;99.90
59855;DHT22;45732;52.850;6.896;2023-08-30T04:07:35;13.30;99.90
59855;DHT22;45732;52.850;6.896;2023-08-30T04:10:01;13.30;99.90
59855;DHT22;45732;52.850;6.896;2023-08-30T04:12:31;13.20;99.90
59855;DHT22;45732;52.850;6.896;2023-08-30T04:14:57;13.30;99.90
59855;DHT22;45732;52.850;6.896;2023-08-30T04:17:22;13.20;99.90
59855;DHT22;45732;52.850;6.896;2023-08-30T04:19:52;13.20;99.90
59855;DHT22;45732;52.850;6.896;2023-08-30T04:22:18;13.20;99.90
59855;DHT22;45732;52.850;6.896;2023-08-30T04:24:44;13.20;99.90
59855;DHT22;45732;52.850;6.896;2023-08-30T04:27:10;13.20;99.90
59855;DHT22;45732;52.850;6.896;2023-08-30T04:29:35;13.20;99.90
59855;DHT22;45732;52.850;6.896;2023-08-30T04:32:01;13.20;99.90
59855;DHT22;45732;52.850;6.896;2023-08-30T04:34:26;13.30;99.90
59855;DHT22;45732;52.850;6.896;2023-08-30T04:36:52;13.20;99.90
59855;DHT22;45732;52.850;6.896;2023-08-30T04:39:18;13.30;99.90
59855;DHT22;45732;52.850;6.896;2023-08-30T04:41:44;13.30;99.90
59855;DHT22;45732;52.850;6.896;2023-08-30T04:44:10;13.30;99.90
59855;DHT22;45732;52.850;6.896;2023-08-30T04:46:36;13.30;99.90
59855;DHT22;45732;52.850;6.896;2023-08-30T04:49:01;13.30;99.90
59855;DHT22;45732;52.850;6.896;2023-08-30T04:51:28;13.40;99.90
59855;DHT22;45732;52.850;6.896;2023-08-30T04:53:53;13.40;99.90
59855;DHT22;45732;52.850;6.896;2023-08-30T04:56:19;13.40;99.90
59855;DHT22;45732;52.850;6.896;2023-08-30T04:58:45;13.40;99.90
59855;DHT22;45732;52.850;6.896;2023-08-30T05:01:10;13.40;99.90
59855;DHT22;45732;52.850;6.896;2023-08-30T05:03:39;13.40;99.90
59855;DHT22;45732;52.850;6.896;2023-08-30T05:06:05;13.50;99.90
59855;DHT22;45732;52.850;6.896;2023-08-30T05:08:30;13.50;99.90
59855;DHT22;45732;52.850;6.896;2023-08-30T05:10:56;13.40;99.90
59855;DHT22;45732;52.850;6.896;2023-08-30T05:13:22;13.50;99.90
59855;DHT22;45732;52.850;6.896;2023-08-30T05:15:49;13.40;99.90
59855;DHT22;45732;52.850;6.896;2023-08-30T05:18:14;13.50;99.90
59855;DHT22;45732;52.850;6.896;2023-08-30T05:20:40;13.50;99.90
59855;DHT22;45732;52.850;6.896;2023-08-30T05:23:06;13.50;99.90
59855;DHT22;45732;52.850;6.896;2023-08-30T05:25:31;13.50;99.90
59855;DHT22;45732;52.850;6.896;2023-08-30T05:27:57;13.60;99.90
59855;DHT22;45732;52.850;6.896;2023-08-30T05:30:23;13.60;99.90
59855;DHT22;45732;52.850;6.896;2023-08-30T05:32:48;13.60;99.90
59855;DHT22;45732;52.850;6.896;2023-08-30T05:35:14;13.60;99.90
59855;DHT22;45732;52.850;6.896;2023-08-30T05:37:40;13.60;99.90
59855;DHT22;45732;52.850;6.896;2023-08-30T05:40:06;13.70;99.90
59855;DHT22;45732;52.850;6.896;2023-08-30T05:42:33;13.70;99.90
59855;DHT22;45732;52.850;6.896;2023-08-30T05:44:58;13.70;99.90
59855;DHT22;45732;52.850;6.896;2023-08-30T05:47:24;13.70;99.90
59855;DHT22;45732;52.850;6.896;2023-08-30T05:49:50;13.80;99.90
59855;DHT22;45732;52.850;6.896;2023-08-30T05:52:16;13.80;99.90
59855;DHT22;45732;52.850;6.896;2023-08-30T05:54:42;13.80;99.90
59855;DHT22;45732;52.850;6.896;2023-08-30T05:57:09;13.80;99.90
59855;DHT22;45732;52.850;6.896;2023-08-30T05:59:34;13.80;99.90
59855;DHT22;45732;52.850;6.896;2023-08-30T06:02:01;13.90;99.90
59855;DHT22;45732;52.850;6.896;2023-08-30T06:04:27;13.90;99.90
59855;DHT22;45732;52.850;6.896;2023-08-30T06:06:52;14.00;99.90
59855;DHT22;45732;52.850;6.896;2023-08-30T06:09:18;14.00;99.90
59855;DHT22;45732;52.850;6.896;2023-08-30T06:11:44;14.00;99.90
59855;DHT22;45732;52.850;6.896;2023-08-30T06:14:09;14.00;99.90
59855;DHT22;45732;52.850;6.896;2023-08-30T06:16:35;14.00;99.90
59855;DHT22;45732;52.850;6.896;2023-08-30T06:19:01;14.00;99.90
59855;DHT22;45732;52.850;6.896;2023-08-30T06:21:27;14.10;99.90
59855;DHT22;45732;52.850;6.896;2023-08-30T06:23:53;14.10;99.90
59855;DHT22;45732;52.850;6.896;2023-08-30T06:26:19;14.10;99.90
59855;DHT22;45732;52.850;6.896;2023-08-30T06:28:45;14.10;99.90
59855;DHT22;45732;52.850;6.896;2023-08-30T06:31:11;14.10;99.90
59855;DHT22;45732;52.850;6.896;2023-08-30T06:33:36;14.10;99.90
59855;DHT22;45732;52.850;6.896;2023-08-30T06:36:04;14.10;99.90
59855;DHT22;45732;52.850;6.896;2023-08-30T06:38:30;14.20;99.90
59855;DHT22;45732;52.850;6.896;2023-08-30T06:40:58;14.20;99.90
59855;DHT22;45732;52.850;6.896;2023-08-30T06:43:24;14.20;99.90
59855;DHT22;45732;52.850;6.896;2023-08-30T06:45:49;14.20;99.90
59855;DHT22;45732;52.850;6.896;2023-08-30T06:48:15;14.20;99.90
59855;DHT22;45732;52.850;6.896;2023-08-30T06:50:41;14.30;99.90
59855;DHT22;45732;52.850;6.896;2023-08-30T06:53:06;14.30;99.90
59855;DHT22;45732;52.850;6.896;2023-08-30T06:55:32;14.30;99.90
59855;DHT22;45732;52.850;6.896;2023-08-30T06:57:59;14.40;99.90
59855;DHT22;45732;52.850;6.896;2023-08-30T07:00:25;14.40;99.90
59855;DHT22;45732;52.850;6.896;2023-08-30T07:02:50;14.40;99.90
59855;DHT22;45732;52.850;6.896;2023-08-30T07:05:16;14.50;99.90
59855;DHT22;45732;52.850;6.896;2023-08-30T07:07:42;14.50;99.90
59855;DHT22;45732;52.850;6.896;2023-08-30T07:10:08;14.60;99.90
59855;DHT22;45732;52.850;6.896;2023-08-30T07:12:34;14.60;99.90
59855;DHT22;45732;52.850;6.896;2023-08-30T07:15:00;14.70;99.90
59855;DHT22;45732;52.850;6.896;2023-08-30T07:17:25;14.70;99.90
59855;DHT22;45732;52.850;6.896;2023-08-30T07:19:51;14.80;99.90
59855;DHT22;45732;52.850;6.896;2023-08-30T07:22:17;14.80;99.90
59855;DHT22;45732;52.850;6.896;2023-08-30T07:24:44;14.90;99.90
59855;DHT22;45732;52.850;6.896;2023-08-30T07:27:09;15.00;99.90
59855;DHT22;45732;52.850;6.896;2023-08-30T07:29:36;15.00;99.90
59855;DHT22;45732;52.850;6.896;2023-08-30T07:32:02;15.00;99.90
59855;DHT22;45732;52.850;6.896;2023-08-30T07:34:28;15.00;99.90
59855;DHT22;45732;52.850;6.896;2023-08-30T07:36:54;15.00;99.90
59855;DHT22;45732;52.850;6.896;2023-08-30T07:39:21;15.00;99.90
59855;DHT22;45732;52.850;6.896;2023-08-30T07:41:47;15.00;99.90
59855;DHT22;45732;52.850;6.896;2023-08-30T07:44:12;15.10;99.90
59855;DHT22;45732;52.850;6.896;2023-08-30T07:46:38;15.10;99.90
59855;DHT22;45732;52.850;6.896;2023-08-30T07:49:04;15.10;99.90
59855;DHT22;45732;52.850;6.896;2023-08-30T07:51:30;15.10;99.90
59855;DHT22;45732;52.850;6.896;2023-08-30T07:53:55;15.10;99.90
59855;DHT22;45732;52.850;6.896;2023-08-30T07:56:21;15.10;99.90
59855;DHT22;45732;52.850;6.896;2023-08-30T07:58:47;15.20;99.90
59855;DHT22;45732;52.850;6.896;2023-08-30T08:01:12;15.20;99.90
59855;DHT22;45732;52.850;6.896;2023-08-30T08:03:38;15.20;99.90
59855;DHT22;45732;52.850;6.896;2023-08-30T08:06:06;15.30;99.90
59855;DHT22;45732;52.850;6.896;2023-08-30T08:08:32;15.40;99.90
59855;DHT22;45732;52.850;6.896;2023-08-30T08:10:59;15.50;99.90
59855;DHT22;45732;52.850;6.896;2023-08-30T08:13:25;15.70;99.90
59855;DHT22;45732;52.850;6.896;2023-08-30T08:15:51;15.80;99.90
59855;DHT22;45732;52.850;6.896;2023-08-30T08:18:17;16.00;99.90
59855;DHT22;45732;52.850;6.896;2023-08-30T08:20:42;16.20;99.90
59855;DHT22;45732;52.850;6.896;2023-08-30T08:23:08;16.30;99.90
59855;DHT22;45732;52.850;6.896;2023-08-30T08:25:34;16.50;99.90
59855;DHT22;45732;52.850;6.896;2023-08-30T08:28:00;16.60;99.90
59855;DHT22;45732;52.850;6.896;2023-08-30T08:30:26;16.60;99.90
59855;DHT22;45732;52.850;6.896;2023-08-30T08:32:51;16.60;99.90
59855;DHT22;45732;52.850;6.896;2023-08-30T08:35:17;16.60;99.90
59855;DHT22;45732;52.850;6.896;2023-08-30T08:37:43;16.60;99.90
59855;DHT22;45732;52.850;6.896;2023-08-30T08:40:09;16.60;99.90
59855;DHT22;45732;52.850;6.896;2023-08-30T08:42:36;16.50;99.90
59855;DHT22;45732;52.850;6.896;2023-08-30T08:45:03;16.50;99.90
59855;DHT22;45732;52.850;6.896;2023-08-30T08:47:32;16.60;99.90
59855;DHT22;45732;52.850;6.896;2023-08-30T08:49:58;16.50;99.90
59855;DHT22;45732;52.850;6.896;2023-08-30T08:52:24;16.60;99.90
59855;DHT22;45732;52.850;6.896;2023-08-30T08:54:52;16.50;99.90
59855;DHT22;45732;52.850;6.896;2023-08-30T08:57:18;16.60;99.90
59855;DHT22;45732;52.850;6.896;2023-08-30T08:59:44;16.60;99.90
59855;DHT22;45732;52.850;6.896;2023-08-30T09:02:13;16.60;99.90
59855;DHT22;45732;52.850;6.896;2023-08-30T09:04:39;16.60;99.90
59855;DHT22;45732;52.850;6.896;2023-08-30T09:07:05;16.60;99.90
59855;DHT22;45732;52.850;6.896;2023-08-30T09:09:33;16.50;99.90
59855;DHT22;45732;52.850;6.896;2023-08-30T09:11:59;16.40;99.90
59855;DHT22;45732;52.850;6.896;2023-08-30T09:14:25;16.40;99.90
59855;DHT22;45732;52.850;6.896;2023-08-30T09:17:02;16.30;99.90
59855;DHT22;45732;52.850;6.896;2023-08-30T09:19:29;16.30;99.90
59855;DHT22;45732;52.850;6.896;2023-08-30T09:21:56;16.30;99.90
59855;DHT22;45732;52.850;6.896;2023-08-30T09:24:23;16.20;99.90
59855;DHT22;45732;52.850;6.896;2023-08-30T09:26:50;16.20;99.90
59855;DHT22;45732;52.850;6.896;2023-08-30T09:29:18;16.20;99.90
59855;DHT22;45732;52.850;6.896;2023-08-30T09:31:44;16.20;99.90
59855;DHT22;45732;52.850;6.896;2023-08-30T09:34:10;16.10;99.90
59855;DHT22;45732;52.850;6.896;2023-08-30T09:36:40;16.10;99.90
59855;DHT22;45732;52.850;6.896;2023-08-30T09:39:13;16.10;99.90
59855;DHT22;45732;52.850;6.896;2023-08-30T09:41:44;16.10;99.90
59855;DHT22;45732;52.850;6.896;2023-08-30T09:46:53;16.10;99.90
59855;DHT22;45732;52.850;6.896;2023-08-30T09:49:23;16.00;99.90
59855;DHT22;45732;52.850;6.896;2023-08-30T09:51:50;16.00;99.90
59855;DHT22;45732;52.850;6.896;2023-08-30T09:54:25;15.90;99.90
59855;DHT22;45732;52.850;6.896;2023-08-30T09:56:51;15.80;99.90
59855;DHT22;45732;52.850;6.896;2023-08-30T09:59:19;15.80;99.90
59855;DHT22;45732;52.850;6.896;2023-08-30T10:01:47;15.80;99.90
59855;DHT22;45732;52.850;6.896;2023-08-30T10:04:15;15.80;99.90
59855;DHT22;45732;52.850;6.896;2023-08-30T10:06:41;15.70;99.90
59855;DHT22;45732;52.850;6.896;2023-08-30T10:09:08;15.70;99.90
59855;DHT22;45732;52.850;6.896;2023-08-30T10:11:38;15.70;99.90
59855;DHT22;45732;52.850;6.896;2023-08-30T10:14:05;15.80;99.90
59855;DHT22;45732;52.850;6.896;2023-08-30T10:16:42;15.80;99.90
59855;DHT22;45732;52.850;6.896;2023-08-30T10:19:14;15.80;99.90
59855;DHT22;45732;52.850;6.896;2023-08-30T10:21:43;15.90;99.90
59855;DHT22;45732;52.850;6.896;2023-08-30T10:24:12;16.00;99.90
59855;DHT22;45732;52.850;6.896;2023-08-30T10:26:42;16.00;99.90
59855;DHT22;45732;52.850;6.896;2023-08-30T10:29:10;16.10;99.90
59855;DHT22;45732;52.850;6.896;2023-08-30T10:31:38;16.10;99.90
59855;DHT22;45732;52.850;6.896;2023-08-30T10:34:15;16.20;99.90
59855;DHT22;45732;52.850;6.896;2023-08-30T10:36:56;16.20;99.90
59855;DHT22;45732;52.850;6.896;2023-08-30T10:39:36;16.20;99.90
59855;DHT22;45732;52.850;6.896;2023-08-30T10:42:11;16.20;99.90
59855;DHT22;45732;52.850;6.896;2023-08-30T10:44:50;16.20;99.90
59855;DHT22;45732;52.850;6.896;2023-08-30T10:47:22;16.10;99.90
59855;DHT22;45732;52.850;6.896;2023-08-30T10:49:49;16.20;99.90
59855;DHT22;45732;52.850;6.896;2023-08-30T10:52:15;16.20;99.90
59855;DHT22;45732;52.850;6.896;2023-08-30T10:54:40;16.20;99.90
59855;DHT22;45732;52.850;6.896;2023-08-30T10:57:13;16.20;99.90
59855;DHT22;45732;52.850;6.896;2023-08-30T10:59:39;16.20;99.90
59855;DHT22;45732;52.850;6.896;2023-08-30T11:02:06;16.20;99.90
59855;DHT22;45732;52.850;6.896;2023-08-30T11:04:32;16.20;99.90
59855;DHT22;45732;52.850;6.896;2023-08-30T11:06:58;16.30;99.90
59855;DHT22;45732;52.850;6.896;2023-08-30T11:09:24;16.30;99.90
59855;DHT22;45732;52.850;6.896;2023-08-30T11:11:51;16.30;99.90
59855;DHT22;45732;52.850;6.896;2023-08-30T11:14:18;16.30;99.90
59855;DHT22;45732;52.850;6.896;2023-08-30T11:16:44;16.20;99.90
59855;DHT22;45732;52.850;6.896;2023-08-30T11:19:11;16.20;99.90
59855;DHT22;45732;52.850;6.896;2023-08-30T11:21:43;16.10;99.90
59855;DHT22;45732;52.850;6.896;2023-08-30T11:24:09;16.20;99.90
59855;DHT22;45732;52.850;6.896;2023-08-30T11:26:35;16.20;99.90
59855;DHT22;45732;52.850;6.896;2023-08-30T11:29:05;16.20;99.90
59855;DHT22;45732;52.850;6.896;2023-08-30T11:31:30;16.10;99.90
59855;DHT22;45732;52.850;6.896;2023-08-30T11:33:57;16.10;99.90
59855;DHT22;45732;52.850;6.896;2023-08-30T11:36:26;16.10;99.90
59855;DHT22;45732;52.850;6.896;2023-08-30T11:38:53;16.00;99.90
59855;DHT22;45732;52.850;6.896;2023-08-30T11:41:23;16.00;99.90
59855;DHT22;45732;52.850;6.896;2023-08-30T11:43:49;15.90;99.90
59855;DHT22;45732;52.850;6.896;2023-08-30T11:46:16;15.90;99.90
59855;DHT22;45732;52.850;6.896;2023-08-30T11:48:42;16.00;99.90
59855;DHT22;45732;52.850;6.896;2023-08-30T11:51:08;16.00;99.90
59855;DHT22;45732;52.850;6.896;2023-08-30T11:53:35;16.10;99.90
59855;DHT22;45732;52.850;6.896;2023-08-30T11:56:01;16.10;99.90
59855;DHT22;45732;52.850;6.896;2023-08-30T11:58:27;16.20;99.90
59855;DHT22;45732;52.850;6.896;2023-08-30T12:00:54;16.20;99.90
59855;DHT22;45732;52.850;6.896;2023-08-30T12:03:20;16.20;99.90
59855;DHT22;45732;52.850;6.896;2023-08-30T12:05:49;16.20;99.90
59855;DHT22;45732;52.850;6.896;2023-08-30T12:08:33;16.20;99.90
59855;DHT22;45732;52.850;6.896;2023-08-30T12:10:58;16.20;99.90
59855;DHT22;45732;52.850;6.896;2023-08-30T12:13:30;16.10;99.90
59855;DHT22;45732;52.850;6.896;2023-08-30T12:15:58;16.10;99.90
59855;DHT22;45732;52.850;6.896;2023-08-30T12:18:25;16.00;99.90
59855;DHT22;45732;52.850;6.896;2023-08-30T12:21:02;16.10;99.90
59855;DHT22;45732;52.850;6.896;2023-08-30T12:23:31;16.10;99.90
59855;DHT22;45732;52.850;6.896;2023-08-30T12:26:03;16.00;99.90
59855;DHT22;45732;52.850;6.896;2023-08-30T12:28:35;16.10;99.90
59855;DHT22;45732;52.850;6.896;2023-08-30T12:31:02;16.00;99.90
59855;DHT22;45732;52.850;6.896;2023-08-30T12:33:30;16.00;99.90
59855;DHT22;45732;52.850;6.896;2023-08-30T12:35:56;16.10;99.90
59855;DHT22;45732;52.850;6.896;2023-08-30T12:38:22;16.10;99.90
59855;DHT22;45732;52.850;6.896;2023-08-30T12:40:50;16.10;99.90
59855;DHT22;45732;52.850;6.896;2023-08-30T12:43:17;16.10;99.90
59855;DHT22;45732;52.850;6.896;2023-08-30T12:45:44;16.10;99.90
59855;DHT22;45732;52.850;6.896;2023-08-30T12:48:14;16.20;99.90
59855;DHT22;45732;52.850;6.896;2023-08-30T12:50:42;16.20;99.90
59855;DHT22;45732;52.850;6.896;2023-08-30T12:53:09;16.20;99.90
59855;DHT22;45732;52.850;6.896;2023-08-30T12:55:35;16.20;99.90
59855;DHT22;45732;52.850;6.896;2023-08-30T12:58:01;16.20;99.90
59855;DHT22;45732;52.850;6.896;2023-08-30T13:00:27;16.30;99.90
59855;DHT22;45732;52.850;6.896;2023-08-30T13:02:52;16.30;99.90
59855;DHT22;45732;52.850;6.896;2023-08-30T13:05:18;16.40;99.90
59855;DHT22;45732;52.850;6.896;2023-08-30T13:07:44;16.40;99.90
59855;DHT22;45732;52.850;6.896;2023-08-30T13:10:10;16.50;99.90
59855;DHT22;45732;52.850;6.896;2023-08-30T13:12:36;16.50;99.90
59855;DHT22;45732;52.850;6.896;2023-08-30T13:15:03;16.50;99.90
59855;DHT22;45732;52.850;6.896;2023-08-30T13:17:29;16.60;99.90
59855;DHT22;45732;52.850;6.896;2023-08-30T13:19:55;16.60;99.90
59855;DHT22;45732;52.850;6.896;2023-08-30T13:22:22;16.60;99.90
59855;DHT22;45732;52.850;6.896;2023-08-30T13:24:48;16.50;99.90
59855;DHT22;45732;52.850;6.896;2023-08-30T13:27:14;16.50;99.90
59855;DHT22;45732;52.850;6.896;2023-08-30T13:29:39;16.50;99.90
59855;DHT22;45732;52.850;6.896;2023-08-30T13:32:05;16.50;99.90
59855;DHT22;45732;52.850;6.896;2023-08-30T13:34:31;16.50;99.90
59855;DHT22;45732;52.850;6.896;2023-08-30T13:36:57;16.40;99.90
59855;DHT22;45732;52.850;6.896;2023-08-30T13:39:23;16.40;99.90
59855;DHT22;45732;52.850;6.896;2023-08-30T13:41:48;16.40;99.90
59855;DHT22;45732;52.850;6.896;2023-08-30T13:44:15;16.40;99.90
59855;DHT22;45732;52.850;6.896;2023-08-30T13:46:41;16.30;99.90
59855;DHT22;45732;52.850;6.896;2023-08-30T13:49:07;16.20;99.90
59855;DHT22;45732;52.850;6.896;2023-08-30T13:51:32;16.20;99.90
59855;DHT22;45732;52.850;6.896;2023-08-30T13:53:58;16.30;99.90
59855;DHT22;45732;52.850;6.896;2023-08-30T13:56:24;16.30;99.90
59855;DHT22;45732;52.850;6.896;2023-08-30T13:58:50;16.40;99.90
59855;DHT22;45732;52.850;6.896;2023-08-30T14:01:16;16.30;99.90
59855;DHT22;45732;52.850;6.896;2023-08-30T14:03:42;16.30;99.90
59855;DHT22;45732;52.850;6.896;2023-08-30T14:06:08;16.30;99.90
59855;DHT22;45732;52.850;6.896;2023-08-30T14:08:34;16.30;99.90
59855;DHT22;45732;52.850;6.896;2023-08-30T14:11:00;16.40;99.90
59855;DHT22;45732;52.850;6.896;2023-08-30T14:13:25;16.40;99.90
59855;DHT22;45732;52.850;6.896;2023-08-30T14:15:53;16.40;99.90
59855;DHT22;45732;52.850;6.896;2023-08-30T14:18:19;16.50;99.90
59855;DHT22;45732;52.850;6.896;2023-08-30T14:20:45;16.50;99.90
59855;DHT22;45732;52.850;6.896;2023-08-30T14:23:10;16.60;99.90
59855;DHT22;45732;52.850;6.896;2023-08-30T14:25:37;16.60;99.90
59855;DHT22;45732;52.850;6.896;2023-08-30T14:28:02;16.50;99.90
59855;DHT22;45732;52.850;6.896;2023-08-30T14:30:30;16.50;99.90
59855;DHT22;45732;52.850;6.896;2023-08-30T14:32:55;16.50;99.90
59855;DHT22;45732;52.850;6.896;2023-08-30T14:35:21;16.50;99.90
59855;DHT22;45732;52.850;6.896;2023-08-30T14:37:52;16.50;99.90
59855;DHT22;45732;52.850;6.896;2023-08-30T14:40:18;16.40;99.90
59855;DHT22;45732;52.850;6.896;2023-08-30T14:42:43;16.30;99.90
59855;DHT22;45732;52.850;6.896;2023-08-30T14:45:09;16.40;99.90
59855;DHT22;45732;52.850;6.896;2023-08-30T14:47:35;16.40;99.90
59855;DHT22;45732;52.850;6.896;2023-08-30T14:50:01;16.30;99.90
59855;DHT22;45732;52.850;6.896;2023-08-30T14:52:29;16.30;99.90
59855;DHT22;45732;52.850;6.896;2023-08-30T14:54:55;16.30;99.90
59855;DHT22;45732;52.850;6.896;2023-08-30T14:57:21;16.40;99.90
59855;DHT22;45732;52.850;6.896;2023-08-30T14:59:47;16.40;99.90
59855;DHT22;45732;52.850;6.896;2023-08-30T15:02:13;16.40;99.90
59855;DHT22;45732;52.850;6.896;2023-08-30T15:04:40;16.40;99.90
59855;DHT22;45732;52.850;6.896;2023-08-30T15:07:05;16.40;99.90
59855;DHT22;45732;52.850;6.896;2023-08-30T15:09:31;16.30;99.90
59855;DHT22;45732;52.850;6.896;2023-08-30T15:11:57;16.40;99.90
59855;DHT22;45732;52.850;6.896;2023-08-30T15:14:24;16.50;99.90
59855;DHT22;45732;52.850;6.896;2023-08-30T15:16:50;16.60;99.90
59855;DHT22;45732;52.850;6.896;2023-08-30T15:19:15;16.70;99.90
59855;DHT22;45732;52.850;6.896;2023-08-30T15:21:41;16.80;99.90
59855;DHT22;45732;52.850;6.896;2023-08-30T15:24:08;16.80;99.90
59855;DHT22;45732;52.850;6.896;2023-08-30T15:26:34;16.90;99.90
59855;DHT22;45732;52.850;6.896;2023-08-30T15:29:00;16.90;99.90
59855;DHT22;45732;52.850;6.896;2023-08-30T15:31:25;16.90;99.90
59855;DHT22;45732;52.850;6.896;2023-08-30T15:33:51;16.80;99.90
59855;DHT22;45732;52.850;6.896;2023-08-30T15:36:17;16.80;99.90